»·PEaware :: N74KW KWJF-49X

N74KW :: KWJF-49X

FLIGHT INFORMATION

Flight Status: Arrived
Operator: Privately registered:
United States
More flights under this callsign
Pilot: Charles C. (26995)
Aircraft: MCDONNELL-DOUGLAS SKYTRAIN C-47
(DC3)
More flights by this aircraft type
Origin: KWJF Gen Fox
United States
Destination: 49X Chemehuevi Valley
United States
More flights between these airports :: More routes between these airports
Route: +VCV
File this flight plan on PilotEdge
Remarks:
Altitude:
(Current/Filed)
5,500ft
Speed:
(Current/Filed)
150kts
Departed: 05-Aug-20 01:29 PM
Arrived: 05-Aug-20 02:44 PM
Distance/Time
Traveled:
187nm/1:15
Distance/Time
To Go:
Arrived

Flight Plot

Page will automatically refresh every two minutes.

Flight plan parsing failed; only flown route is shown


Map Options




Map Legend


Flown Route
Filed Route
Departure Airport
Arrival Airport
Navaid (VOR, NDB)
Fix

Horizontal Profiles

Position Reports

Time Latitude Longitude Heading Altitude Ground
Speed
05-Aug-20 13:21 34.739406 -118.214432 35 2344ft 0kts
05-Aug-20 13:22 34.739406 -118.214432 35 2344ft 0kts
05-Aug-20 13:23 34.739693 -118.214183 35 2344ft 3kts
05-Aug-20 13:24 34.739775 -118.214111 35 2344ft 0kts
05-Aug-20 13:25 34.740743 -118.213399 338 2344ft 10kts
05-Aug-20 13:26 34.742248 -118.210331 72 2341ft 19kts
05-Aug-20 13:27 34.743786 -118.208396 253 2340ft 10kts
05-Aug-20 13:28 34.737324 -118.231423 248 2772ft 91kts
05-Aug-20 13:29 34.720519 -118.216755 83 3247ft 141kts
05-Aug-20 13:30 34.722928 -118.168011 89 3747ft 145kts
05-Aug-20 13:31 34.722183 -118.119494 99 4310ft 143kts
05-Aug-20 13:32 34.717364 -118.071843 98 4847ft 143kts
05-Aug-20 13:33 34.710100 -118.024369 106 5301ft 146kts
05-Aug-20 13:34 34.701481 -117.974792 102 5534ft 159kts
05-Aug-20 13:35 34.690719 -117.918104 105 5372ft 179kts
05-Aug-20 13:36 34.679162 -117.858323 105 5322ft 181kts
05-Aug-20 13:37 34.668034 -117.800468 105 5484ft 176kts
05-Aug-20 13:38 34.656342 -117.742619 105 5472ft 172kts
05-Aug-20 13:39 34.645220 -117.688391 105 5475ft 160kts
05-Aug-20 13:40 34.637323 -117.635703 98 5479ft 158kts
05-Aug-20 13:41 34.632565 -117.581396 97 5477ft 164kts
05-Aug-20 13:42 34.627685 -117.525826 98 5478ft 166kts
05-Aug-20 13:43 34.621878 -117.469833 99 5479ft 167kts
05-Aug-20 13:44 34.615529 -117.414252 99 5523ft 164kts
05-Aug-20 13:45 34.609023 -117.359376 99 5526ft 164kts
05-Aug-20 13:46 34.602609 -117.304326 99 5525ft 164kts
05-Aug-20 13:47 34.595277 -117.249699 96 5524ft 164kts
05-Aug-20 13:48 34.592514 -117.194484 94 5525ft 164kts
05-Aug-20 13:49 34.590360 -117.139181 94 5525ft 163kts
05-Aug-20 13:50 34.588441 -117.084040 93 5514ft 164kts
05-Aug-20 13:51 34.586530 -117.028733 93 5493ft 164kts
05-Aug-20 13:52 34.584678 -116.973250 94 5472ft 165kts
05-Aug-20 13:53 34.582771 -116.917984 94 5563ft 158kts
05-Aug-20 13:54 34.580921 -116.864275 94 5571ft 161kts
05-Aug-20 13:55 34.579023 -116.811606 93 5568ft 162kts
05-Aug-20 13:56 34.574323 -116.757191 97 5577ft 162kts
05-Aug-20 13:57 34.571003 -116.702299 95 5566ft 163kts
05-Aug-20 13:58 34.568570 -116.647330 94 5573ft 162kts
05-Aug-20 13:59 34.566329 -116.592476 94 5583ft 162kts
05-Aug-20 14:00 34.564208 -116.537974 95 5598ft 161kts
05-Aug-20 14:01 34.562078 -116.483591 94 5616ft 161kts
05-Aug-20 14:02 34.559949 -116.429271 95 5635ft 161kts
05-Aug-20 14:03 34.557755 -116.375072 95 5640ft 160kts
05-Aug-20 14:04 34.553427 -116.321055 99 5643ft 160kts
05-Aug-20 14:05 34.549762 -116.267758 83 5646ft 161kts
05-Aug-20 14:06 34.556937 -116.214157 82 5685ft 159kts
05-Aug-20 14:07 34.564450 -116.160770 81 5689ft 161kts
05-Aug-20 14:08 34.572287 -116.106789 87 5650ft 163kts
05-Aug-20 14:09 34.576727 -116.051696 87 5599ft 164kts
05-Aug-20 14:10 34.580976 -115.996502 86 5554ft 164kts
05-Aug-20 14:11 34.585466 -115.941277 86 5504ft 164kts
05-Aug-20 14:12 34.589877 -115.886049 86 5479ft 163kts
05-Aug-20 14:13 34.594300 -115.831418 86 5479ft 162kts
05-Aug-20 14:14 34.598818 -115.777561 86 5615ft 153kts
05-Aug-20 14:15 34.603540 -115.725188 86 5626ft 158kts
05-Aug-20 14:16 34.608632 -115.671766 86 5627ft 160kts
05-Aug-20 14:17 34.614036 -115.617110 85 5489ft 169kts
05-Aug-20 14:18 34.619095 -115.561185 85 5479ft 164kts
05-Aug-20 14:19 34.624130 -115.506365 85 5480ft 162kts
05-Aug-20 14:20 34.629321 -115.451745 85 5479ft 163kts
05-Aug-20 14:21 34.634732 -115.397210 85 5479ft 162kts
05-Aug-20 14:22 34.638131 -115.341542 93 5360ft 168kts
05-Aug-20 14:23 34.638030 -115.284021 92 5193ft 171kts
05-Aug-20 14:24 34.635295 -115.227181 96 5193ft 164kts
05-Aug-20 14:25 34.632198 -115.171923 96 5193ft 163kts
05-Aug-20 14:26 34.629268 -115.117190 97 5186ft 162kts
05-Aug-20 14:27 34.623575 -115.062659 100 5185ft 162kts
05-Aug-20 14:28 34.618014 -115.008422 100 5186ft 161kts
05-Aug-20 14:29 34.612853 -114.954052 101 5186ft 162kts
05-Aug-20 14:30 34.607066 -114.899778 101 5185ft 162kts
05-Aug-20 14:31 34.601124 -114.844612 102 5033ft 168kts
05-Aug-20 14:32 34.594466 -114.787782 102 4871ft 171kts
05-Aug-20 14:33 34.587725 -114.730250 101 4725ft 172kts
05-Aug-20 14:34 34.580952 -114.672625 105 4496ft 176kts
05-Aug-20 14:35 34.567711 -114.613335 116 4004ft 183kts
05-Aug-20 14:36 34.544690 -114.560426 126 3821ft 171kts
05-Aug-20 14:37 34.536126 -114.503122 94 3505ft 179kts
05-Aug-20 14:38 34.535545 -114.441517 93 3043ft 185kts
05-Aug-20 14:39 34.545653 -114.390830 354 2678ft 160kts
05-Aug-20 14:40 34.577225 -114.408813 240 2058ft 118kts
05-Aug-20 14:41 34.557333 -114.432626 164 1226ft 104kts
05-Aug-20 14:42 34.533307 -114.431907 184 629ft 56kts
05-Aug-20 14:43 34.529357 -114.430233 183 625ft 0kts
05-Aug-20 14:44 34.529346 -114.430233 187 625ft 0kts
05-Aug-20 14:45 34.529346 -114.430233 187 625ft 0kts
05-Aug-20 14:46 34.529346 -114.430233 187 625ft 0kts
05-Aug-20 14:47 34.529346 -114.430233 187 625ft 0kts
05-Aug-20 14:48 34.529346 -114.430233 187 625ft 0kts
05-Aug-20 14:49 34.529346 -114.430233 187 625ft 0kts
05-Aug-20 14:50 34.529346 -114.430233 187 625ft 0kts
05-Aug-20 14:51 34.529346 -114.430233 187 625ft 0kts
05-Aug-20 14:53 34.529346 -114.430233 187 625ft 0kts
05-Aug-20 14:54 34.529346 -114.430233 187 625ft 0kts
05-Aug-20 14:55 34.529346 -114.430233 187 625ft 0kts
05-Aug-20 14:56 34.529346 -114.430233 187 625ft 0kts
05-Aug-20 14:57 34.529346 -114.430233 187 625ft 0kts
05-Aug-20 14:58 34.529346 -114.430233 187 625ft 0kts

Navigation Log

Ident Type
Flight plan parsing failed, navigation log unavailable